createdAt,value
2018-02-27T00:02:07.391Z,-6.80
2018-02-27T00:04:34.896Z,-6.80
2018-02-27T00:07:02.392Z,-6.80
2018-02-27T00:09:29.903Z,-6.90
2018-02-27T00:11:57.425Z,-7.00
2018-02-27T00:14:24.943Z,-6.90
2018-02-27T00:16:52.442Z,-6.90
2018-02-27T00:19:19.951Z,-6.80
2018-02-27T00:21:47.452Z,-6.80
2018-02-27T00:24:14.954Z,-6.70
2018-02-27T00:26:42.454Z,-6.70
2018-02-27T00:29:10.001Z,-6.70
2018-02-27T00:31:37.466Z,-6.80
2018-02-27T00:34:04.972Z,-6.90
2018-02-27T00:36:33.244Z,-6.80
2018-02-27T00:39:01.519Z,-6.80
2018-02-27T00:41:29.799Z,-6.80
2018-02-27T00:43:58.067Z,-6.80
2018-02-27T00:46:26.388Z,-7.00
2018-02-27T00:48:53.891Z,-7.00
2018-02-27T00:51:21.390Z,-7.00
2018-02-27T00:53:48.894Z,-7.00
2018-02-27T00:56:16.412Z,-7.00
2018-02-27T00:58:43.940Z,-7.00
2018-02-27T01:01:12.206Z,-6.90
2018-02-27T01:03:39.812Z,-7.00
2018-02-27T01:06:07.312Z,-6.90
2018-02-27T01:08:34.818Z,-6.90
2018-02-27T01:11:02.363Z,-7.00
2018-02-27T01:13:30.630Z,-7.00
2018-02-27T01:15:58.910Z,-7.00
2018-02-27T01:18:27.175Z,-7.00
2018-02-27T01:20:54.675Z,-7.10
2018-02-27T01:23:22.172Z,-7.10
2018-02-27T01:25:49.667Z,-7.10
2018-02-27T01:28:17.930Z,-7.00
2018-02-27T01:30:46.220Z,-7.00
2018-02-27T01:33:14.493Z,-7.10
2018-02-27T01:35:42.775Z,-7.20
2018-02-27T01:38:11.048Z,-7.10
2018-02-27T01:40:39.315Z,-7.10
2018-02-27T01:43:07.587Z,-7.10
2018-02-27T01:45:35.863Z,-7.20
2018-02-27T01:48:03.359Z,-7.20
2018-02-27T01:50:30.862Z,-7.20
2018-02-27T01:52:58.363Z,-7.20
2018-02-27T01:55:25.883Z,-7.30
2018-02-27T01:57:53.498Z,-7.30
2018-02-27T02:00:21.003Z,-7.30
2018-02-27T02:02:48.495Z,-7.30
2018-02-27T02:05:15.998Z,-7.30
2018-02-27T02:07:43.507Z,-7.30
2018-02-27T02:10:11.775Z,-7.30
2018-02-27T02:12:40.043Z,-7.30
2018-02-27T02:15:08.319Z,-7.40
2018-02-27T02:17:36.598Z,-7.40
2018-02-27T02:20:04.988Z,-7.40
2018-02-27T02:22:33.255Z,-7.40
2018-02-27T02:25:01.524Z,-7.40
2018-02-27T02:27:29.816Z,-7.40
2018-02-27T02:29:58.096Z,-7.50
2018-02-27T02:32:26.356Z,-7.40
2018-02-27T02:34:53.868Z,-7.40
2018-02-27T02:37:21.375Z,-7.30
2018-02-27T02:39:49.663Z,-7.30
2018-02-27T02:42:25.066Z,-7.20
2018-02-27T02:44:52.571Z,-7.20
2018-02-27T02:47:20.850Z,-7.20
2018-02-27T02:49:49.112Z,-7.20
2018-02-27T02:52:17.380Z,-7.30
2018-02-27T02:54:44.878Z,-7.30
2018-02-27T02:57:12.438Z,-7.30
2018-02-27T02:59:39.951Z,-7.30
2018-02-27T03:02:07.443Z,-7.30
2018-02-27T03:04:34.943Z,-7.30
2018-02-27T03:07:02.443Z,-7.30
2018-02-27T03:09:30.714Z,-7.30
2018-02-27T03:11:58.998Z,-7.30
2018-02-27T03:14:27.262Z,-7.30
2018-02-27T03:16:55.523Z,-7.30
2018-02-27T03:19:23.035Z,-7.30
2018-02-27T03:21:50.534Z,-7.40
2018-02-27T03:24:18.035Z,-7.40
2018-02-27T03:26:45.551Z,-7.40
2018-02-27T03:29:13.051Z,-7.40
2018-02-27T03:31:40.566Z,-7.40
2018-02-27T03:34:08.063Z,-7.30
2018-02-27T03:36:36.328Z,-7.40
2018-02-27T03:39:04.600Z,-7.50
2018-02-27T03:41:32.886Z,-7.40
2018-02-27T03:44:01.151Z,-7.40
2018-02-27T03:46:29.424Z,-7.40
2018-02-27T03:48:57.715Z,-7.40
2018-02-27T03:51:25.987Z,-7.40
2018-02-27T03:53:54.251Z,-7.30
2018-02-27T03:56:21.762Z,-7.40
2018-02-27T03:58:49.259Z,-7.40
2018-02-27T04:01:16.874Z,-7.40
2018-02-27T04:03:44.372Z,-7.50
2018-02-27T04:06:11.874Z,-7.50
2018-02-27T04:08:39.376Z,-7.40
2018-02-27T04:11:06.894Z,-7.40
2018-02-27T04:13:34.394Z,-7.50
2018-02-27T04:16:01.922Z,-7.40
2018-02-27T04:18:29.439Z,-7.40
2018-02-27T04:20:56.938Z,-7.40
2018-02-27T04:23:24.435Z,-7.40
2018-02-27T04:25:51.936Z,-7.40
2018-02-27T04:28:19.455Z,-7.40
2018-02-27T04:30:46.956Z,-7.50
2018-02-27T04:33:14.454Z,-7.50
2018-02-27T04:35:41.962Z,-7.50
2018-02-27T04:38:10.228Z,-7.50
2018-02-27T04:40:38.490Z,-7.50
2018-02-27T04:43:05.998Z,-7.50
2018-02-27T04:45:33.500Z,-7.40
2018-02-27T04:48:01.006Z,-7.50
2018-02-27T04:50:28.515Z,-7.50
2018-02-27T04:52:56.011Z,-7.50
2018-02-27T04:55:24.286Z,-7.40
2018-02-27T04:57:52.585Z,-7.40
2018-02-27T05:00:20.087Z,-7.50
2018-02-27T05:02:47.629Z,-7.50
2018-02-27T05:05:15.143Z,-7.60
2018-02-27T05:07:43.432Z,-7.50
2018-02-27T05:10:10.927Z,-7.50
2018-02-27T05:12:38.434Z,-7.50
2018-02-27T05:15:06.707Z,-7.50
2018-02-27T05:17:34.979Z,-7.50
2018-02-27T05:20:03.263Z,-7.60
2018-02-27T05:22:31.551Z,-7.60
2018-02-27T05:24:59.072Z,-7.60
2018-02-27T05:27:26.568Z,-7.50
2018-02-27T05:29:54.082Z,-7.50
2018-02-27T05:32:21.579Z,-7.60
2018-02-27T05:34:49.078Z,-7.60
2018-02-27T05:37:16.592Z,-7.50
2018-02-27T05:39:44.851Z,-7.60
2018-02-27T05:42:13.114Z,-7.60
2018-02-27T05:44:40.631Z,-7.60
2018-02-27T05:47:08.127Z,-7.60
2018-02-27T05:49:35.639Z,-7.70
2018-02-27T05:52:03.135Z,-7.70
2018-02-27T05:54:30.640Z,-7.70
2018-02-27T05:56:58.143Z,-7.70
2018-02-27T05:59:26.452Z,-7.70
2018-02-27T06:01:54.722Z,-7.80
2018-02-27T06:04:22.992Z,-7.90
2018-02-27T06:06:50.487Z,-7.90
2018-02-27T06:09:17.992Z,-7.90
2018-02-27T06:11:45.499Z,-7.90
2018-02-27T06:14:13.776Z,-8.10
2018-02-27T06:16:41.304Z,-8.10
2018-02-27T06:19:08.823Z,-8.00
2018-02-27T06:21:36.355Z,-7.90
2018-02-27T06:24:03.866Z,-7.90
2018-02-27T06:26:31.367Z,-7.80
2018-02-27T06:28:59.736Z,-7.70
2018-02-27T06:31:28.023Z,-7.70
2018-02-27T06:33:55.539Z,-7.70
2018-02-27T06:36:23.047Z,-7.60
2018-02-27T06:38:50.539Z,-7.60
2018-02-27T06:41:18.038Z,-7.50
2018-02-27T06:43:46.316Z,-7.60
2018-02-27T06:46:14.600Z,-7.60
2018-02-27T06:48:42.876Z,-7.70
2018-02-27T06:51:11.139Z,-7.70
2018-02-27T06:53:39.406Z,-7.70
2018-02-27T06:56:07.683Z,-7.60
2018-02-27T06:58:35.199Z,-7.70
2018-02-27T07:01:02.700Z,-7.50
2018-02-27T07:03:30.207Z,-7.60
2018-02-27T07:05:57.707Z,-7.70
2018-02-27T07:08:25.202Z,-7.70
2018-02-27T07:10:53.475Z,-7.70
2018-02-27T07:13:21.752Z,-7.70
2018-02-27T07:15:50.015Z,-7.70
2018-02-27T07:18:18.304Z,-7.60
2018-02-27T07:20:46.567Z,-7.60
2018-02-27T07:23:14.067Z,-7.50
2018-02-27T07:25:41.563Z,-7.60
2018-02-27T07:28:09.083Z,-7.60
2018-02-27T07:30:36.576Z,-7.50
2018-02-27T07:33:04.111Z,-7.40
2018-02-27T07:35:31.611Z,-7.40
2018-02-27T07:37:59.110Z,-7.30
2018-02-27T07:40:26.612Z,-7.30
2018-02-27T07:42:54.112Z,-7.20
2018-02-27T07:45:22.479Z,-7.20
2018-02-27T07:47:50.745Z,-7.20
2018-02-27T07:50:18.242Z,-7.20
2018-02-27T07:52:45.752Z,-7.10
2018-02-27T07:55:13.251Z,-7.00
2018-02-27T07:57:40.750Z,-7.10
2018-02-27T08:00:08.254Z,-7.00
2018-02-27T08:02:36.538Z,-7.00
2018-02-27T08:05:04.052Z,-7.00
2018-02-27T08:07:31.564Z,-7.00
2018-02-27T08:09:59.058Z,-6.90
2018-02-27T08:12:26.555Z,-6.80
2018-02-27T08:14:54.823Z,-6.80
2018-02-27T08:17:23.107Z,-6.70
2018-02-27T08:19:51.375Z,-6.70
2018-02-27T08:22:18.887Z,-6.70
2018-02-27T08:24:46.403Z,-6.60
2018-02-27T08:27:14.687Z,-6.60
2018-02-27T08:29:42.947Z,-6.60
2018-02-27T08:32:11.211Z,-6.50
2018-02-27T08:34:38.718Z,-6.50
2018-02-27T08:37:06.225Z,-6.40
2018-02-27T08:39:33.732Z,-6.40
2018-02-27T08:42:01.242Z,-6.30
2018-02-27T08:44:28.743Z,-6.30
2018-02-27T08:46:56.314Z,-6.30
2018-02-27T08:49:23.814Z,-6.30
2018-02-27T08:51:51.316Z,-6.20
2018-02-27T08:54:18.827Z,-6.20
2018-02-27T08:56:46.326Z,-6.20
2018-02-27T08:59:14.587Z,-6.10
2018-02-27T09:01:42.856Z,-6.00
2018-02-27T09:04:10.375Z,-6.00
2018-02-27T09:06:37.871Z,-6.00
2018-02-27T09:09:05.388Z,-5.90
2018-02-27T09:11:32.919Z,-5.90
2018-02-27T09:14:00.411Z,-5.80
2018-02-27T09:16:27.910Z,-5.80
2018-02-27T09:18:56.179Z,-5.90
2018-02-27T09:21:23.682Z,-5.90
2018-02-27T09:23:51.196Z,-5.90
2018-02-27T09:26:19.487Z,-6.00
2018-02-27T09:28:47.766Z,-5.90
2018-02-27T09:31:16.019Z,-5.80
2018-02-27T09:33:43.515Z,-5.80
2018-02-27T09:36:11.033Z,-5.60
2018-02-27T09:38:38.583Z,-5.50
2018-02-27T09:41:06.111Z,-5.30
2018-02-27T09:43:33.666Z,-5.30
2018-02-27T09:46:01.225Z,-5.40
2018-02-27T09:48:28.774Z,-5.40
2018-02-27T09:50:56.373Z,-5.40
2018-02-27T09:53:23.940Z,-5.30
2018-02-27T09:55:51.543Z,-5.20
2018-02-27T09:58:19.842Z,-5.20
2018-02-27T10:00:47.391Z,-5.20
2018-02-27T10:03:14.939Z,-5.20
2018-02-27T10:05:42.521Z,-5.20
2018-02-27T10:08:10.099Z,-5.20
2018-02-27T10:10:37.649Z,-5.30
2018-02-27T10:13:05.200Z,-5.30
2018-02-27T10:15:32.779Z,-5.30
2018-02-27T10:18:00.456Z,-5.30
2018-02-27T10:20:28.095Z,-5.30
2018-02-27T10:22:55.748Z,-5.50
2018-02-27T10:25:23.349Z,-5.50
2018-02-27T10:27:52.433Z,-5.50
2018-02-27T10:30:19.982Z,-5.50
2018-02-27T10:32:47.761Z,-5.50
2018-02-27T10:35:15.401Z,-5.50
2018-02-27T10:37:42.973Z,-5.40
2018-02-27T10:40:10.684Z,-5.40
2018-02-27T10:42:38.986Z,-5.60
2018-02-27T10:45:06.577Z,-5.60
2018-02-27T10:47:34.214Z,-5.60
2018-02-27T10:50:01.797Z,-5.80
2018-02-27T10:52:29.402Z,-5.70
2018-02-27T10:54:57.763Z,-5.50
2018-02-27T10:57:25.338Z,-5.50
2018-02-27T10:59:53.650Z,-5.20
2018-02-27T11:02:21.215Z,-5.20
2018-02-27T11:04:48.811Z,-5.20
2018-02-27T11:07:16.372Z,-5.20
2018-02-27T11:09:43.942Z,-5.20
2018-02-27T11:12:12.274Z,-5.30
2018-02-27T11:14:39.852Z,-5.30
2018-02-27T11:17:07.437Z,-5.10
2018-02-27T11:19:35.043Z,-5.30
2018-02-27T11:22:02.576Z,-5.20
2018-02-27T11:24:30.861Z,-5.00
2018-02-27T11:26:58.391Z,-5.00
2018-02-27T11:29:25.923Z,-4.90
2018-02-27T11:31:53.439Z,-5.00
2018-02-27T11:34:20.997Z,-5.00
2018-02-27T11:36:48.549Z,-5.00
2018-02-27T11:39:16.852Z,-4.80
2018-02-27T11:41:44.420Z,-4.80
2018-02-27T11:44:11.972Z,-4.80
2018-02-27T11:46:39.544Z,-4.80
2018-02-27T11:49:07.095Z,-4.80
2018-02-27T11:51:34.656Z,-4.90
2018-02-27T11:54:02.208Z,-4.90
2018-02-27T11:56:29.760Z,-4.90
2018-02-27T11:58:57.304Z,-4.70
2018-02-27T12:01:25.599Z,-4.70
2018-02-27T12:03:53.119Z,-4.70
2018-02-27T12:06:20.657Z,-4.50
2018-02-27T12:08:48.160Z,-4.50
2018-02-27T12:11:15.679Z,-4.80
2018-02-27T12:13:43.190Z,-4.70
2018-02-27T12:16:10.725Z,-4.60
2018-02-27T12:18:39.039Z,-4.60
2018-02-27T12:21:06.610Z,-4.60
2018-02-27T12:23:34.149Z,-4.60
2018-02-27T12:26:01.696Z,-4.70
2018-02-27T12:28:29.241Z,-4.60
2018-02-27T12:30:57.630Z,-4.60
2018-02-27T12:33:25.136Z,-4.60
2018-02-27T12:35:52.651Z,-4.60
2018-02-27T12:38:20.170Z,-4.60
2018-02-27T12:40:47.686Z,-4.40
2018-02-27T12:43:15.187Z,-3.80
2018-02-27T12:45:42.695Z,-3.80
2018-02-27T12:48:10.195Z,-3.70
2018-02-27T12:50:37.703Z,-3.70
2018-02-27T12:53:05.207Z,-3.90
2018-02-27T12:55:32.702Z,-4.10
2018-02-27T12:58:00.987Z,-4.30
2018-02-27T13:00:29.251Z,-4.40
2018-02-27T13:02:57.526Z,-4.40
2018-02-27T13:05:25.795Z,-4.40
2018-02-27T13:07:54.079Z,-4.40
2018-02-27T13:10:22.343Z,-4.50
2018-02-27T13:12:49.838Z,-4.50
2018-02-27T13:15:17.343Z,-4.50
2018-02-27T13:17:44.842Z,-4.40
2018-02-27T13:20:13.113Z,-4.40
2018-02-27T13:22:41.396Z,-4.50
2018-02-27T13:25:09.667Z,-4.60
2018-02-27T13:27:37.951Z,-4.70
2018-02-27T13:30:06.215Z,-4.80
2018-02-27T13:32:34.483Z,-4.80
2018-02-27T13:35:01.995Z,-4.80
2018-02-27T13:37:29.491Z,-4.90
2018-02-27T13:39:57.003Z,-4.80
2018-02-27T13:42:24.499Z,-4.80
2018-02-27T13:44:52.022Z,-4.80
2018-02-27T13:47:19.538Z,-4.80
2018-02-27T13:49:47.808Z,-4.70
2018-02-27T13:52:15.331Z,-4.70
2018-02-27T13:54:42.824Z,-4.80
2018-02-27T13:57:11.103Z,-4.80
2018-02-27T13:59:38.612Z,-4.80
2018-02-27T14:02:06.403Z,-4.80
2018-02-27T14:04:33.908Z,-4.90
2018-02-27T14:07:02.179Z,-5.00
2018-02-27T14:09:30.460Z,-5.20
2018-02-27T14:11:57.981Z,-5.30
2018-02-27T14:14:25.571Z,-5.20
2018-02-27T14:16:53.831Z,-5.00
2018-02-27T14:19:21.333Z,-5.00
2018-02-27T14:21:48.894Z,-5.10
2018-02-27T14:24:16.401Z,-5.00
2018-02-27T14:26:43.919Z,-5.10
2018-02-27T14:29:11.435Z,-5.00
2018-02-27T14:31:39.707Z,-5.00
2018-02-27T14:34:08.110Z,-5.00
2018-02-27T14:36:35.650Z,-4.90
2018-02-27T14:39:03.928Z,-4.90
2018-02-27T14:41:32.335Z,-4.90
2018-02-27T14:43:59.839Z,-4.90
2018-02-27T14:46:27.368Z,-4.90
2018-02-27T14:48:54.895Z,-4.90
2018-02-27T14:51:23.166Z,-5.00
2018-02-27T14:53:51.447Z,-5.00
2018-02-27T14:56:19.849Z,-5.20
2018-02-27T14:58:47.372Z,-5.20
2018-02-27T15:01:15.660Z,-5.20
2018-02-27T15:03:43.937Z,-5.30
2018-02-27T15:06:12.239Z,-5.30
2018-02-27T15:08:39.759Z,-5.30
2018-02-27T15:11:08.113Z,-5.30
2018-02-27T15:13:35.632Z,-5.30
2018-02-27T15:16:03.168Z,-5.30
2018-02-27T15:18:31.459Z,-5.30
2018-02-27T15:20:59.029Z,-5.30
2018-02-27T15:23:26.573Z,-5.40
2018-02-27T15:25:54.125Z,-5.30
2018-02-27T15:28:22.464Z,-5.30
2018-02-27T15:30:50.200Z,-5.30
2018-02-27T15:33:17.740Z,-5.40
2018-02-27T15:35:45.289Z,-5.40
2018-02-27T15:38:13.620Z,-5.40
2018-02-27T15:40:41.159Z,-5.40
2018-02-27T15:43:08.823Z,-5.30
2018-02-27T15:45:36.351Z,-5.40
2018-02-27T15:48:03.905Z,-5.40
2018-02-27T15:50:32.179Z,-5.40
2018-02-27T15:53:00.442Z,-5.40
2018-02-27T15:55:28.763Z,-5.50
2018-02-27T15:57:56.271Z,-5.50
2018-02-27T16:00:24.539Z,-5.50
2018-02-27T16:02:52.111Z,-5.50
2018-02-27T16:05:20.387Z,-5.30
2018-02-27T16:07:48.670Z,-5.40
2018-02-27T16:10:16.927Z,-5.50
2018-02-27T16:12:44.423Z,-5.50
2018-02-27T16:15:11.947Z,-5.40
2018-02-27T16:17:39.440Z,-5.50
2018-02-27T16:20:06.960Z,-5.50
2018-02-27T16:22:34.458Z,-5.50
2018-02-27T16:25:01.968Z,-5.60
2018-02-27T16:27:29.470Z,-5.50
2018-02-27T16:29:56.984Z,-5.50
2018-02-27T16:32:24.574Z,-5.70
2018-02-27T16:34:52.835Z,-5.70
2018-02-27T16:37:20.339Z,-5.70
2018-02-27T16:39:47.873Z,-5.60
2018-02-27T16:42:16.139Z,-5.70
2018-02-27T16:44:44.520Z,-5.80
2018-02-27T16:47:12.788Z,-5.80
2018-02-27T16:49:40.299Z,-5.80
2018-02-27T16:52:07.799Z,-5.80
2018-02-27T16:54:35.311Z,-5.80
2018-02-27T16:57:02.952Z,-5.90
2018-02-27T16:59:30.451Z,-5.90
2018-02-27T17:01:57.959Z,-5.90
2018-02-27T17:04:26.218Z,-5.90
2018-02-27T17:06:53.722Z,-6.00
2018-02-27T17:09:21.215Z,-6.00
2018-02-27T17:11:48.806Z,-6.00
2018-02-27T17:14:17.079Z,-6.00
2018-02-27T17:16:45.367Z,-6.10
2018-02-27T17:19:13.740Z,-6.20
2018-02-27T17:21:42.010Z,-6.30
2018-02-27T17:24:10.271Z,-6.40
2018-02-27T17:26:37.780Z,-6.40
2018-02-27T17:29:05.275Z,-6.40
2018-02-27T17:31:32.980Z,-6.50
2018-02-27T17:34:00.480Z,-6.50
2018-02-27T17:36:28.002Z,-6.60
2018-02-27T17:38:55.500Z,-6.70
2018-02-27T17:41:23.011Z,-6.60
2018-02-27T17:43:51.278Z,-6.50
2018-02-27T17:46:19.551Z,-6.50
2018-02-27T17:48:47.833Z,-6.60
2018-02-27T17:51:16.116Z,-6.60
2018-02-27T17:53:44.382Z,-6.50
2018-02-27T17:56:12.648Z,-6.60
2018-02-27T17:58:40.155Z,-6.60
2018-02-27T18:01:07.664Z,-6.60
2018-02-27T18:03:35.447Z,-6.70
2018-02-27T18:06:03.003Z,-6.80
2018-02-27T18:08:31.264Z,-6.90
2018-02-27T18:10:58.872Z,-6.90
2018-02-27T18:13:26.483Z,-6.90
2018-02-27T18:15:53.981Z,-6.90
2018-02-27T18:18:21.587Z,-6.90
2018-02-27T18:20:49.094Z,-6.90
2018-02-27T18:23:16.723Z,-6.90
2018-02-27T18:25:45.150Z,-6.80
2018-02-27T18:28:12.811Z,-6.90
2018-02-27T18:30:40.431Z,-6.80
2018-02-27T18:33:08.792Z,-7.00
2018-02-27T18:35:36.299Z,-7.00
2018-02-27T18:38:03.796Z,-6.90
2018-02-27T18:40:31.300Z,-6.90
2018-02-27T18:42:59.576Z,-6.90
2018-02-27T18:45:27.839Z,-6.80
2018-02-27T18:47:56.103Z,-6.80
2018-02-27T18:50:23.607Z,-6.80
2018-02-27T18:52:51.119Z,-6.80
2018-02-27T18:55:18.631Z,-6.80
2018-02-27T18:57:46.144Z,-6.70
2018-02-27T19:00:13.644Z,-6.70
2018-02-27T19:02:41.146Z,-6.70
2018-02-27T19:05:08.661Z,-6.80
2018-02-27T19:07:36.169Z,-6.90
2018-02-27T19:10:03.681Z,-6.90
2018-02-27T19:12:31.191Z,-6.90
2018-02-27T19:14:58.692Z,-6.90
2018-02-27T19:17:26.191Z,-6.90
2018-02-27T19:19:53.715Z,-6.90
2018-02-27T19:22:21.211Z,-6.80
2018-02-27T19:24:48.711Z,-6.80
2018-02-27T19:27:16.988Z,-6.80
2018-02-27T19:29:44.491Z,-6.90
2018-02-27T19:32:12.204Z,-6.90
2018-02-27T19:34:40.472Z,-7.00
2018-02-27T19:37:08.764Z,-7.00
2018-02-27T19:39:37.035Z,-6.90
2018-02-27T19:42:05.299Z,-6.90
2018-02-27T19:44:33.680Z,-7.00
2018-02-27T19:47:01.952Z,-6.90
2018-02-27T19:49:30.219Z,-7.00
2018-02-27T19:51:57.721Z,-7.00
2018-02-27T19:54:25.235Z,-7.00
2018-02-27T19:56:52.735Z,-7.00
2018-02-27T19:59:20.247Z,-7.10
2018-02-27T20:01:47.775Z,-7.10
2018-02-27T20:04:15.275Z,-7.10
2018-02-27T20:06:42.893Z,-7.10
2018-02-27T20:09:10.395Z,-7.10
2018-02-27T20:11:37.896Z,-7.10
2018-02-27T20:14:05.414Z,-7.10
2018-02-27T20:16:33.691Z,-7.10
2018-02-27T20:19:01.969Z,-7.00
2018-02-27T20:21:30.235Z,-7.00
2018-02-27T20:24:03.531Z,-7.00
2018-02-27T20:26:31.047Z,-7.00
2018-02-27T20:29:04.263Z,-7.10
2018-02-27T20:31:31.768Z,-7.00
2018-02-27T20:33:59.416Z,-7.00
2018-02-27T20:36:27.683Z,-7.00
2018-02-27T20:39:01.691Z,-7.00
2018-02-27T20:41:29.196Z,-7.00
2018-02-27T20:43:56.751Z,-6.90
2018-02-27T20:46:24.259Z,-6.90
2018-02-27T20:48:51.870Z,-7.00
2018-02-27T20:51:19.508Z,-7.00
2018-02-27T20:53:47.766Z,-7.00
2018-02-27T20:56:16.168Z,-7.10
2018-02-27T20:58:44.465Z,-7.00
2018-02-27T21:01:12.017Z,-7.10
2018-02-27T21:03:39.547Z,-7.10
2018-02-27T21:06:07.052Z,-7.00
2018-02-27T21:08:34.551Z,-7.00
2018-02-27T21:11:02.059Z,-7.00
2018-02-27T21:13:29.616Z,-7.00
2018-02-27T21:15:57.177Z,-7.00
2018-02-27T21:18:24.720Z,-7.00
2018-02-27T21:20:52.216Z,-7.00
2018-02-27T21:23:19.736Z,-7.10
2018-02-27T21:25:47.239Z,-7.20
2018-02-27T21:28:14.736Z,-7.20
2018-02-27T21:30:43.003Z,-7.20
2018-02-27T21:33:10.501Z,-7.20
2018-02-27T21:35:37.999Z,-7.20
2018-02-27T21:38:05.522Z,-7.20
2018-02-27T21:40:33.035Z,-7.20
2018-02-27T21:43:00.639Z,-7.30
2018-02-27T21:45:28.143Z,-7.30
2018-02-27T21:47:55.645Z,-7.30
2018-02-27T21:50:23.165Z,-7.30
2018-02-27T21:52:50.671Z,-7.30
2018-02-27T21:55:18.192Z,-7.30
2018-02-27T21:57:45.792Z,-7.20
2018-02-27T22:00:13.291Z,-7.10
2018-02-27T22:02:40.799Z,-7.20
2018-02-27T22:05:08.442Z,-7.20
2018-02-27T22:07:36.703Z,-7.10
2018-02-27T22:10:04.203Z,-7.10
2018-02-27T22:12:31.839Z,-7.10
2018-02-27T22:15:00.104Z,-7.00
2018-02-27T22:17:28.583Z,-7.10
2018-02-27T22:19:56.080Z,-7.00
2018-02-27T22:22:23.579Z,-7.10
2018-02-27T22:24:51.079Z,-7.10
2018-02-27T22:27:18.735Z,-7.10
2018-02-27T22:29:46.994Z,-7.20
2018-02-27T22:32:14.500Z,-7.20
2018-02-27T22:34:42.007Z,-7.20
2018-02-27T22:37:09.522Z,-7.30
2018-02-27T22:39:37.018Z,-7.40
2018-02-27T22:42:04.536Z,-7.40
2018-02-27T22:44:32.044Z,-7.50
2018-02-27T22:46:59.543Z,-7.50
2018-02-27T22:49:27.056Z,-7.60
2018-02-27T22:51:54.555Z,-7.60
2018-02-27T22:54:22.051Z,-7.60
2018-02-27T22:56:49.568Z,-7.60
2018-02-27T22:59:17.079Z,-7.60
2018-02-27T23:01:44.600Z,-7.60
2018-02-27T23:04:12.095Z,-7.50
2018-02-27T23:06:39.595Z,-7.50
2018-02-27T23:09:07.101Z,-7.50
2018-02-27T23:11:34.612Z,-7.50
2018-02-27T23:14:02.115Z,-7.50
2018-02-27T23:16:29.617Z,-7.50
2018-02-27T23:18:57.891Z,-7.50
2018-02-27T23:21:26.167Z,-7.50
2018-02-27T23:23:58.999Z,-7.50
2018-02-27T23:26:34.998Z,-7.60
2018-02-27T23:29:05.475Z,-7.60
2018-02-27T23:31:34.171Z,-7.60
2018-02-27T23:34:19.759Z,-7.70
2018-02-27T23:36:47.255Z,-7.70
2018-02-27T23:39:15.531Z,-7.80
2018-02-27T23:41:43.799Z,-7.90
2018-02-27T23:44:12.081Z,-7.90
2018-02-27T23:46:40.359Z,-7.90
2018-02-27T23:49:08.634Z,-7.90
2018-02-27T23:51:36.906Z,-8.00
2018-02-27T23:54:04.511Z,-8.00
2018-02-27T23:56:32.003Z,-8.00
2018-02-27T23:58:59.498Z,-8.00
